Time;durP1;ratioP1;P1;durP2;ratioP2;P2;SDS_P1;SDS_P2;PMS_P1;PMS_P2;Temp;Humidity;BMP_temperature;BMP_pressure;BME280_temperature;BME280_humidity;BME280_pressure;Samples;Min_cycle;Max_cycle;Signal;HPM_P1;HPM_P2
2022/10/13 00:01:25;;;;;;;10.32;6.40;;;12.60;75.60;;;;;;5008564;28;20042;-69
2022/10/13 00:03:51;;;;;;;10.82;7.20;;;12.60;75.50;;;;;;5008801;28;20515;-69
2022/10/13 00:06:19;;;;;;;12.70;7.60;;;12.60;75.80;;;;;;5009171;28;20029;-70
2022/10/13 00:08:45;;;;;;;12.73;8.43;;;12.50;75.90;;;;;;5007592;28;20025;-69
2022/10/13 00:11:20;;;;;;;11.90;7.03;;;12.50;76.20;;;;;;5008814;28;20092;-69
2022/10/13 00:13:46;;;;;;;15.90;9.02;;;12.50;76.20;;;;;;5008053;28;20022;-69
2022/10/13 00:16:15;;;;;;;11.80;8.20;;;12.60;76.40;;;;;;5008440;28;20392;-70
2022/10/13 00:18:40;;;;;;;13.23;8.30;;;12.50;76.50;;;;;;5006570;28;20038;-69
2022/10/13 00:21:08;;;;;;;11.35;6.80;;;12.50;76.70;;;;;;5007005;28;20022;-73
2022/10/13 00:23:34;;;;;;;10.32;6.60;;;12.50;76.80;;;;;;5016159;28;20037;-70
2022/10/13 00:26:03;;;;;;;11.05;5.90;;;12.50;76.70;;;;;;5001063;28;20073;-69
2022/10/13 00:28:29;;;;;;;10.00;6.43;;;12.60;76.60;;;;;;5007171;28;20152;-69
2022/10/13 00:30:54;;;;;;;14.10;9.02;;;12.60;76.60;;;;;;4994635;28;20063;-69
2022/10/13 00:33:20;;;;;;;11.10;7.50;;;12.60;76.80;;;;;;5006723;28;20080;-69
2022/10/13 00:35:47;;;;;;;10.02;6.75;;;12.60;76.90;;;;;;5010789;28;20030;-69
2022/10/13 00:38:14;;;;;;;12.15;7.35;;;12.60;76.80;;;;;;5013526;28;20030;-70
2022/10/13 00:40:46;;;;;;;10.88;7.32;;;12.60;76.90;;;;;;5010615;28;20025;-69
2022/10/13 00:43:53;;;;;;;12.85;6.88;;;12.60;77.00;;;;;;5009974;28;20040;-69
2022/10/13 00:46:21;;;;;;;11.98;7.68;;;12.70;76.90;;;;;;5009331;28;20030;-67
2022/10/13 00:48:49;;;;;;;14.70;9.45;;;12.70;76.80;;;;;;5005154;28;20036;-67
2022/10/13 00:51:19;;;;;;;10.93;8.10;;;12.70;77.50;;;;;;5008237;28;20137;-68
2022/10/13 00:53:47;;;;;;;11.25;7.43;;;12.70;77.60;;;;;;5008201;28;20029;-69
2022/10/13 00:56:16;;;;;;;10.40;7.00;;;12.70;77.60;;;;;;5008464;28;20022;-68
2022/10/13 00:58:44;;;;;;;12.43;8.32;;;12.80;77.60;;;;;;5006902;28;20076;-68
2022/10/13 01:01:10;;;;;;;11.90;7.28;;;12.80;77.80;;;;;;5012348;28;20200;-69
2022/10/13 01:03:36;;;;;;;12.50;7.78;;;12.70;77.70;;;;;;5012271;28;20037;-69
2022/10/13 01:06:04;;;;;;;11.93;8.93;;;12.80;77.90;;;;;;5010140;28;20097;-69
2022/10/13 01:08:30;;;;;;;12.75;8.60;;;12.80;78.00;;;;;;5012179;28;20045;-69
2022/10/13 01:11:30;;;;;;;15.23;9.77;;;12.80;78.00;;;;;;5010504;28;20080;-70
2022/10/13 01:14:09;;;;;;;10.98;8.02;;;12.80;78.40;;;;;;5010696;28;20461;-69
2022/10/13 01:16:40;;;;;;;14.48;9.10;;;12.70;78.40;;;;;;5011164;28;20593;-68
2022/10/13 01:19:12;;;;;;;12.00;7.60;;;12.80;78.50;;;;;;5006731;28;20030;-69
2022/10/13 01:21:50;;;;;;;9.85;5.90;;;12.80;78.50;;;;;;5011701;28;20352;-69
2022/10/13 01:24:40;;;;;;;9.57;6.50;;;12.80;78.30;;;;;;5014138;28;20077;-70
2022/10/13 01:27:18;;;;;;;9.88;6.97;;;12.80;78.20;;;;;;5015972;28;20163;-70
2022/10/13 01:30:25;;;;;;;13.55;8.32;;;12.90;78.10;;;;;;5015952;28;20508;-69
2022/10/13 01:33:17;;;;;;;10.98;7.10;;;12.80;78.30;;;;;;5013553;28;20045;-70
2022/10/13 01:36:10;;;;;;;12.13;7.40;;;12.90;78.20;;;;;;5013995;28;20420;-70
2022/10/13 01:38:45;;;;;;;9.25;6.68;;;12.90;78.10;;;;;;5013662;28;20415;-70
2022/10/13 01:41:27;;;;;;;13.30;8.38;;;12.90;78.10;;;;;;5032833;28;20021;-70
2022/10/13 01:44:23;;;;;;;13.32;8.75;;;12.90;78.30;;;;;;5023641;28;20502;-69
2022/10/13 01:46:51;;;;;;;12.27;8.25;;;12.90;78.40;;;;;;5013133;28;20030;-70
2022/10/13 01:49:19;;;;;;;11.38;7.10;;;12.90;78.60;;;;;;5012848;28;20038;-69
2022/10/13 01:51:46;;;;;;;14.57;8.82;;;12.90;78.50;;;;;;5012424;28;20064;-70
2022/10/13 01:54:12;;;;;;;12.60;8.27;;;12.90;78.60;;;;;;5010297;28;20038;-70
2022/10/13 01:56:37;;;;;;;12.93;8.52;;;12.90;78.60;;;;;;5011386;28;20369;-71
2022/10/13 01:59:13;;;;;;;15.05;9.88;;;13.00;78.70;;;;;;5009967;28;20022;-70
2022/10/13 02:01:53;;;;;;;13.02;8.48;;;12.90;78.80;;;;;;5011542;28;20128;-70
2022/10/13 02:04:44;;;;;;;14.23;10.10;;;12.90;78.90;;;;;;5011239;28;20582;-70
2022/10/13 02:07:16;;;;;;;16.73;10.45;;;12.90;79.10;;;;;;5010373;28;20500;-68
2022/10/13 02:09:47;;;;;;;12.23;8.90;;;12.90;79.30;;;;;;5010312;28;20569;-69
2022/10/13 02:12:23;;;;;;;14.35;9.10;;;12.90;79.40;;;;;;5008194;28;20030;-70
2022/10/13 02:14:51;;;;;;;11.60;8.35;;;12.90;79.30;;;;;;5004346;28;20486;-70
2022/10/13 02:17:18;;;;;;;15.65;8.85;;;12.90;79.30;;;;;;5011662;28;20061;-69
2022/10/13 02:19:44;;;;;;;11.10;7.85;;;12.90;79.30;;;;;;5010698;28;20435;-69
2022/10/13 02:22:13;;;;;;;13.00;8.30;;;13.00;79.20;;;;;;5010495;28;20037;-69
2022/10/13 02:24:39;;;;;;;14.35;9.70;;;13.00;79.30;;;;;;5009890;28;20014;-69
2022/10/13 02:27:06;;;;;;;19.48;8.88;;;13.00;79.40;;;;;;5008067;28;20026;-70
2022/10/13 02:29:31;;;;;;;12.13;8.13;;;13.00;79.50;;;;;;5006664;28;20022;-68
2022/10/13 02:31:57;;;;;;;13.30;7.82;;;13.00;79.60;;;;;;5007102;28;20562;-69
2022/10/13 02:34:23;;;;;;;13.60;9.15;;;13.00;79.50;;;;;;5007449;28;20061;-68
2022/10/13 02:36:48;;;;;;;15.45;10.15;;;13.10;79.60;;;;;;5006154;28;20084;-67
2022/10/13 02:39:14;;;;;;;12.57;8.90;;;13.00;79.80;;;;;;5008064;28;20095;-68
2022/10/13 02:41:40;;;;;;;12.10;8.48;;;13.00;79.90;;;;;;5010150;28;20026;-68
2022/10/13 02:44:05;;;;;;;11.60;7.60;;;13.00;79.90;;;;;;5009111;28;20403;-69
2022/10/13 02:46:31;;;;;;;12.55;7.70;;;13.00;79.80;;;;;;5006938;28;20026;-68
2022/10/13 02:48:57;;;;;;;13.05;8.52;;;13.10;79.80;;;;;;5008533;28;20033;-69
2022/10/13 02:51:22;;;;;;;11.48;6.75;;;13.10;79.80;;;;;;5011313;28;20042;-69
2022/10/13 02:53:48;;;;;;;11.82;7.95;;;13.10;79.70;;;;;;5011232;28;20026;-69
2022/10/13 02:56:13;;;;;;;11.45;7.32;;;13.10;79.80;;;;;;5011289;28;20065;-69
2022/10/13 02:58:39;;;;;;;8.05;6.28;;;13.10;79.70;;;;;;5010954;28;20033;-69
2022/10/13 03:01:13;;;;;;;10.75;7.07;;;13.20;79.60;;;;;;5010511;28;20030;-68
2022/10/13 03:03:39;;;;;;;10.00;7.13;;;13.20;79.50;;;;;;5010192;28;20022;-69
2022/10/13 03:06:05;;;;;;;11.13;7.75;;;13.20;79.40;;;;;;5008907;28;20075;-69
2022/10/13 03:08:32;;;;;;;16.42;9.52;;;13.20;79.40;;;;;;5010308;28;20018;-68
2022/10/13 03:10:57;;;;;;;12.52;8.32;;;13.20;79.60;;;;;;5008058;28;20528;-69
2022/10/13 03:13:23;;;;;;;11.98;7.75;;;13.20;79.70;;;;;;5011647;28;20061;-68
2022/10/13 03:15:49;;;;;;;15.15;9.40;;;13.20;79.50;;;;;;5008410;28;20065;-68
2022/10/13 03:18:14;;;;;;;12.93;8.40;;;13.20;79.60;;;;;;5011001;28;20646;-68
2022/10/13 03:20:40;;;;;;;12.70;7.97;;;13.20;79.70;;;;;;5010198;28;20083;-70
2022/10/13 03:23:06;;;;;;;11.80;7.97;;;13.20;79.70;;;;;;5013656;28;20024;-69
2022/10/13 03:25:32;;;;;;;12.35;7.22;;;13.20;79.80;;;;;;5015842;28;20022;-68
2022/10/13 03:27:58;;;;;;;13.00;7.93;;;13.20;79.80;;;;;;5024707;28;20017;-68
2022/10/13 03:30:24;;;;;;;13.27;7.70;;;13.20;79.70;;;;;;5013585;28;20038;-68
2022/10/13 03:32:49;;;;;;;12.48;7.82;;;13.30;79.70;;;;;;5012521;28;20396;-68
2022/10/13 03:35:15;;;;;;;14.52;8.52;;;13.30;79.80;;;;;;5006348;28;20034;-68
2022/10/13 03:37:41;;;;;;;17.33;9.82;;;13.20;79.80;;;;;;4998649;28;20031;-69
2022/10/13 03:40:07;;;;;;;12.25;8.18;;;13.20;80.10;;;;;;5008642;28;20026;-69
2022/10/13 03:42:35;;;;;;;11.48;7.50;;;13.20;80.10;;;;;;4996395;28;20022;-69
2022/10/13 03:45:01;;;;;;;11.18;7.78;;;13.20;80.10;;;;;;5010792;28;20105;-68
2022/10/13 03:47:27;;;;;;;14.32;7.90;;;13.20;80.20;;;;;;5007396;28;20083;-68
2022/10/13 03:49:54;;;;;;;15.95;9.30;;;13.20;80.20;;;;;;5006613;28;20030;-68
2022/10/13 03:52:19;;;;;;;15.18;9.27;;;13.20;80.80;;;;;;4997183;28;20445;-68
2022/10/13 03:54:45;;;;;;;13.02;8.15;;;13.20;80.30;;;;;;5009521;28;20049;-69
2022/10/13 03:57:11;;;;;;;12.82;8.20;;;13.20;80.40;;;;;;5009660;28;20112;-68
2022/10/13 03:59:39;;;;;;;12.75;7.63;;;13.20;80.40;;;;;;5008415;28;20129;-68
2022/10/13 04:02:05;;;;;;;14.90;8.35;;;13.20;80.30;;;;;;5006220;28;20029;-68
2022/10/13 04:04:30;;;;;;;11.98;7.68;;;13.20;80.40;;;;;;5009053;28;20149;-67
2022/10/13 04:06:56;;;;;;;18.67;10.80;;;13.20;80.40;;;;;;5009575;28;20067;-69
2022/10/13 04:09:21;;;;;;;12.95;8.50;;;13.20;80.50;;;;;;5010794;28;20034;-69
2022/10/13 04:11:50;;;;;;;14.70;8.95;;;13.20;80.60;;;;;;5007510;28;20026;-69
2022/10/13 04:14:15;;;;;;;18.05;10.13;;;13.30;80.70;;;;;;5008549;28;20030;-69
2022/10/13 04:16:41;;;;;;;13.27;8.98;;;13.20;80.80;;;;;;5007951;28;20080;-67
2022/10/13 04:19:07;;;;;;;13.13;8.80;;;13.30;80.90;;;;;;5011518;28;20064;-69
2022/10/13 04:21:33;;;;;;;13.77;8.48;;;13.30;80.90;;;;;;5008895;28;20614;-69
2022/10/13 04:24:01;;;;;;;13.77;7.85;;;13.30;80.90;;;;;;5008398;28;20026;-69
2022/10/13 04:26:28;;;;;;;10.63;6.65;;;13.30;80.90;;;;;;5007628;28;20029;-70
2022/10/13 04:28:54;;;;;;;12.88;7.75;;;13.30;80.80;;;;;;5009498;28;20400;-68
2022/10/13 04:31:21;;;;;;;13.50;8.60;;;13.30;80.70;;;;;;5009491;28;20692;-67
2022/10/13 04:33:47;;;;;;;12.40;7.30;;;13.30;80.80;;;;;;5008137;28;20429;-66
2022/10/13 04:36:13;;;;;;;11.35;6.78;;;13.30;80.80;;;;;;5007232;28;20029;-68
2022/10/13 04:38:40;;;;;;;10.43;6.40;;;13.30;80.70;;;;;;5009252;28;20026;-69
2022/10/13 04:41:06;;;;;;;9.98;6.68;;;13.40;80.60;;;;;;5009878;28;20029;-69
2022/10/13 04:43:33;;;;;;;10.60;8.05;;;13.40;80.50;;;;;;5006969;28;20030;-69
2022/10/13 04:46:08;;;;;;;9.75;6.57;;;13.40;80.60;;;;;;5005221;28;20054;-67
2022/10/13 04:48:33;;;;;;;9.40;6.45;;;13.40;80.60;;;;;;5012239;28;20084;-69
2022/10/13 04:51:05;;;;;;;12.23;7.47;;;13.40;80.40;;;;;;5009645;28;20030;-70
2022/10/13 04:53:32;;;;;;;13.27;7.95;;;13.40;80.50;;;;;;5008246;28;20036;-70
2022/10/13 04:56:07;;;;;;;16.50;10.43;;;13.40;80.70;;;;;;5009111;28;20042;-68
2022/10/13 04:58:33;;;;;;;13.73;9.07;;;13.30;81.00;;;;;;5006055;28;20030;-68
2022/10/13 05:00:58;;;;;;;13.77;7.82;;;13.30;81.20;;;;;;5007252;28;20021;-67
2022/10/13 05:03:24;;;;;;;13.43;8.25;;;13.30;81.30;;;;;;5007705;28;20166;-69
2022/10/13 05:05:50;;;;;;;12.40;8.07;;;13.30;81.20;;;;;;5008785;28;20053;-68
2022/10/13 05:08:15;;;;;;;13.30;7.53;;;13.30;81.10;;;;;;5007936;28;20069;-68
2022/10/13 05:10:41;;;;;;;14.95;9.77;;;13.30;81.20;;;;;;5009223;28;20030;-68
2022/10/13 05:13:07;;;;;;;13.18;7.78;;;13.30;81.20;;;;;;5008226;28;20032;-68
2022/10/13 05:15:32;;;;;;;14.23;8.00;;;13.30;81.30;;;;;;5005361;28;20481;-69
2022/10/13 05:17:59;;;;;;;13.48;8.00;;;13.30;81.50;;;;;;5007391;28;20496;-68
2022/10/13 05:20:25;;;;;;;9.43;6.65;;;13.30;81.50;;;;;;5013349;28;20037;-68
2022/10/13 05:22:50;;;;;;;11.77;7.45;;;13.30;81.40;;;;;;5009176;28;20033;-70
2022/10/13 05:25:16;;;;;;;12.73;7.55;;;13.30;81.30;;;;;;5014996;28;20033;-70
2022/10/13 05:27:43;;;;;;;16.02;9.35;;;13.30;81.30;;;;;;5008091;28;20245;-69
2022/10/13 05:30:10;;;;;;;14.52;9.50;;;13.30;81.50;;;;;;4995706;28;20488;-69
2022/10/13 05:32:35;;;;;;;12.13;7.97;;;13.30;81.60;;;;;;5005068;28;20041;-69
2022/10/13 05:35:01;;;;;;;14.88;8.70;;;13.30;81.70;;;;;;4997597;28;20026;-69
2022/10/13 05:37:26;;;;;;;13.25;8.82;;;13.30;81.60;;;;;;5004485;28;20401;-69
2022/10/13 05:39:52;;;;;;;14.10;7.70;;;13.30;81.70;;;;;;5012789;28;20657;-69
2022/10/13 05:42:18;;;;;;;9.40;5.97;;;13.40;81.70;;;;;;5008363;28;20053;-68
2022/10/13 05:44:43;;;;;;;14.02;7.35;;;13.40;81.50;;;;;;5011044;28;20028;-70
2022/10/13 05:47:09;;;;;;;10.43;7.25;;;13.50;81.40;;;;;;5007983;28;20065;-67
2022/10/13 05:49:38;;;;;;;11.10;7.28;;;13.50;82.00;;;;;;5008957;28;20033;-68
2022/10/13 05:52:07;;;;;;;12.60;7.53;;;13.50;81.40;;;;;;5010990;28;20535;-69
2022/10/13 05:54:38;;;;;;;13.07;8.05;;;13.50;81.30;;;;;;5012105;28;20120;-69
2022/10/13 05:57:25;;;;;;;10.23;6.90;;;13.50;81.30;;;;;;5009534;28;20026;-69
2022/10/13 06:00:00;;;;;;;11.20;6.80;;;13.50;81.20;;;;;;5011611;28;20044;-69
2022/10/13 06:02:33;;;;;;;14.07;7.32;;;13.60;81.20;;;;;;5010132;28;20080;-68
2022/10/13 06:05:01;;;;;;;12.90;8.15;;;13.50;81.20;;;;;;5010971;28;20417;-69
2022/10/13 06:07:28;;;;;;;13.45;7.90;;;13.50;81.20;;;;;;5011760;28;20049;-71
2022/10/13 06:09:56;;;;;;;11.05;6.68;;;13.50;81.30;;;;;;5011341;28;20044;-68
2022/10/13 06:12:21;;;;;;;10.00;6.43;;;13.50;81.20;;;;;;5011319;28;20022;-70
2022/10/13 06:14:47;;;;;;;11.05;6.30;;;13.50;81.10;;;;;;5011437;28;20032;-70
2022/10/13 06:17:13;;;;;;;10.70;6.63;;;13.60;81.70;;;;;;5012153;28;20064;-69
2022/10/13 06:19:39;;;;;;;9.73;6.22;;;13.60;81.10;;;;;;5014054;28;20030;-69
2022/10/13 06:22:04;;;;;;;9.32;6.35;;;13.60;81.00;;;;;;5014756;28;20078;-69
2022/10/13 06:24:30;;;;;;;9.00;5.80;;;13.60;81.00;;;;;;5015969;28;20503;-69
2022/10/13 06:26:56;;;;;;;10.65;6.32;;;13.70;80.90;;;;;;5012131;28;20025;-70
2022/10/13 06:29:21;;;;;;;12.43;8.15;;;13.70;80.80;;;;;;5014466;28;20799;-69
2022/10/13 06:31:47;;;;;;;13.30;8.55;;;13.70;80.70;;;;;;5007938;28;20077;-68
2022/10/13 06:34:13;;;;;;;10.98;6.65;;;13.70;80.90;;;;;;5007924;28;20520;-69
2022/10/13 06:36:38;;;;;;;12.05;8.32;;;13.70;80.90;;;;;;5010506;28;20481;-70
2022/10/13 06:39:04;;;;;;;11.95;6.63;;;13.80;80.90;;;;;;5010731;28;20036;-69
2022/10/13 06:41:29;;;;;;;12.65;7.72;;;13.70;80.80;;;;;;5008075;28;20100;-70
2022/10/13 06:43:55;;;;;;;15.98;9.80;;;13.70;80.90;;;;;;5009506;28;20582;-69
2022/10/13 06:46:20;;;;;;;11.32;7.72;;;13.70;81.00;;;;;;5009805;28;20097;-70
2022/10/13 06:48:49;;;;;;;15.27;9.75;;;13.70;81.00;;;;;;5011206;28;20044;-69
2022/10/13 06:51:15;;;;;;;16.02;10.23;;;13.70;81.20;;;;;;5008810;28;20049;-69
2022/10/13 06:53:40;;;;;;;12.45;7.80;;;13.70;81.50;;;;;;5008914;28;20053;-70
2022/10/13 06:56:07;;;;;;;13.05;7.32;;;13.60;81.70;;;;;;5009116;28;20030;-69
2022/10/13 06:58:34;;;;;;;10.82;7.50;;;13.60;81.60;;;;;;5006755;28;20033;-69
2022/10/13 07:01:00;;;;;;;12.35;8.07;;;13.70;81.50;;;;;;5005650;28;20022;-70
2022/10/13 07:03:26;;;;;;;15.25;9.13;;;13.70;81.50;;;;;;5012478;28;20033;-68
2022/10/13 07:05:51;;;;;;;13.25;9.15;;;13.70;81.70;;;;;;5006757;28;20057;-70
2022/10/13 07:08:17;;;;;;;10.88;6.97;;;13.70;81.90;;;;;;5007757;28;20068;-69
2022/10/13 07:10:43;;;;;;;12.18;8.13;;;13.70;81.90;;;;;;5008266;28;20030;-69
2022/10/13 07:13:09;;;;;;;14.70;8.55;;;13.80;81.80;;;;;;5007468;28;20066;-68
2022/10/13 07:15:39;;;;;;;11.77;8.30;;;13.80;82.00;;;;;;5005946;28;20035;-69
2022/10/13 07:18:05;;;;;;;10.63;7.00;;;13.80;82.10;;;;;;5005091;28;20041;-69
2022/10/13 07:20:31;;;;;;;15.68;8.75;;;13.80;82.00;;;;;;5005678;28;20511;-68
2022/10/13 07:22:56;;;;;;;12.80;7.22;;;13.80;82.10;;;;;;5007283;28;20480;-69
2022/10/13 07:25:22;;;;;;;15.55;9.50;;;13.80;82.10;;;;;;5008350;28;20266;-69
2022/10/13 07:27:48;;;;;;;14.65;9.85;;;13.80;82.10;;;;;;5009502;28;20078;-70
2022/10/13 07:30:13;;;;;;;12.35;7.65;;;13.80;82.30;;;;;;5005598;28;20157;-67
2022/10/13 07:32:41;;;;;;;10.90;6.93;;;13.80;82.20;;;;;;5004686;28;20080;-68
2022/10/13 07:35:08;;;;;;;11.48;7.28;;;13.80;82.20;;;;;;5005217;28;20025;-68
2022/10/13 07:37:34;;;;;;;14.68;9.25;;;13.80;82.20;;;;;;5004348;28;20041;-68
2022/10/13 07:40:00;;;;;;;25.98;19.20;;;13.90;82.20;;;;;;5007362;28;20034;-67
2022/10/13 07:42:26;;;;;;;18.02;12.35;;;13.90;82.40;;;;;;5007681;28;20049;-68
2022/10/13 07:44:51;;;;;;;17.70;11.13;;;13.90;82.40;;;;;;5008867;28;20026;-67
2022/10/13 07:47:17;;;;;;;14.65;8.88;;;13.90;82.70;;;;;;5008192;28;20515;-67
2022/10/13 07:49:42;;;;;;;13.15;8.63;;;13.80;83.10;;;;;;5008152;28;20026;-67
2022/10/13 07:52:08;;;;;;;11.55;8.27;;;13.80;83.30;;;;;;5003405;28;20022;-67
2022/10/13 07:54:34;;;;;;;14.13;9.02;;;13.80;83.30;;;;;;5006437;28;20890;-68
2022/10/13 07:56:59;;;;;;;15.00;9.50;;;13.80;83.40;;;;;;5000063;28;20025;-68
2022/10/13 07:59:25;;;;;;;20.40;11.18;;;13.80;83.50;;;;;;5004123;28;20026;-68
2022/10/13 08:01:50;;;;;;;16.40;10.00;;;13.80;83.80;;;;;;5008428;28;20080;-69
2022/10/13 08:04:16;;;;;;;12.30;9.13;;;13.80;83.80;;;;;;5001790;28;20017;-68
2022/10/13 08:06:41;;;;;;;11.60;8.43;;;13.80;83.70;;;;;;5006158;28;20488;-69
2022/10/13 08:09:07;;;;;;;11.70;8.25;;;13.90;83.90;;;;;;5005098;28;20055;-67
2022/10/13 08:11:33;;;;;;;11.57;7.20;;;13.90;83.70;;;;;;5015270;28;20033;-67
2022/10/13 08:14:00;;;;;;;12.90;8.68;;;14.00;83.60;;;;;;5009277;28;20018;-67
2022/10/13 08:16:29;;;;;;;14.13;9.85;;;14.00;83.40;;;;;;5005488;28;20092;-68
2022/10/13 08:18:56;;;;;;;15.00;10.23;;;14.00;83.40;;;;;;5006620;28;20399;-68
2022/10/13 08:21:22;;;;;;;15.85;10.40;;;14.00;83.40;;;;;;5006026;28;20037;-68
2022/10/13 08:23:48;;;;;;;15.10;9.73;;;14.00;83.50;;;;;;5008112;28;20014;-68
2022/10/13 08:26:34;;;;;;;12.18;8.00;;;14.10;83.50;;;;;;5004632;28;20041;-68
2022/10/13 08:29:00;;;;;;;19.95;10.50;;;14.10;83.30;;;;;;5005725;28;20510;-68
2022/10/13 08:31:25;;;;;;;13.93;9.23;;;14.20;83.10;;;;;;5004338;28;20033;-68
2022/10/13 08:33:51;;;;;;;14.10;8.65;;;14.20;83.00;;;;;;5005978;28;20105;-68
2022/10/13 08:36:17;;;;;;;13.40;9.35;;;14.30;82.80;;;;;;5007286;28;20100;-68
2022/10/13 08:38:43;;;;;;;13.05;8.73;;;14.30;82.50;;;;;;5007794;28;20022;-68
2022/10/13 08:41:23;;;;;;;13.38;9.02;;;14.40;82.40;;;;;;5005928;28;20026;-68
2022/10/13 08:43:55;;;;;;;14.07;9.10;;;14.50;82.30;;;;;;5004948;28;20384;-68
2022/10/13 08:46:27;;;;;;;17.75;11.55;;;14.50;82.10;;;;;;5006686;28;20586;-68
2022/10/13 08:48:55;;;;;;;16.45;9.60;;;14.50;82.00;;;;;;5007784;28;20040;-68
2022/10/13 08:51:20;;;;;;;14.80;9.82;;;14.50;82.00;;;;;;5003830;28;20061;-69
2022/10/13 08:53:46;;;;;;;13.55;8.32;;;14.50;81.90;;;;;;5001119;28;20053;-68
2022/10/13 08:56:26;;;;;;;11.13;8.02;;;14.50;81.80;;;;;;5006571;28;20072;-68
2022/10/13 08:58:53;;;;;;;12.75;8.20;;;14.50;81.80;;;;;;5005870;28;20026;-68
2022/10/13 09:01:20;;;;;;;17.85;11.63;;;14.60;81.70;;;;;;5004638;28;20026;-68
2022/10/13 09:03:51;;;;;;;18.13;12.00;;;14.60;81.60;;;;;;5008021;28;20040;-68
2022/10/13 09:06:30;;;;;;;17.90;11.32;;;14.50;81.60;;;;;;5006082;28;20448;-68
2022/10/13 09:08:59;;;;;;;36.15;21.52;;;14.50;81.70;;;;;;5006753;28;20384;-68
2022/10/13 09:11:27;;;;;;;72.57;42.50;;;14.60;81.80;;;;;;5001808;28;20042;-68
2022/10/13 09:13:54;;;;;;;39.45;25.38;;;14.70;81.60;;;;;;5006355;28;20083;-68
2022/10/13 09:16:28;;;;;;;35.97;24.73;;;14.80;81.40;;;;;;5003550;28;20396;-68
2022/10/13 09:18:54;;;;;;;25.33;18.38;;;14.80;81.20;;;;;;5005189;28;20510;-69
2022/10/13 09:21:24;;;;;;;16.42;11.00;;;14.90;81.00;;;;;;5009652;28;20030;-69
2022/10/13 09:23:52;;;;;;;16.75;10.57;;;15.00;80.80;;;;;;5010752;28;20050;-69
2022/10/13 09:26:21;;;;;;;15.48;9.57;;;15.10;80.40;;;;;;5011880;28;20087;-68
2022/10/13 09:28:47;;;;;;;13.13;9.15;;;15.30;80.20;;;;;;5007572;28;20018;-68
2022/10/13 09:31:23;;;;;;;14.77;10.00;;;15.40;79.80;;;;;;5012070;28;20030;-69
2022/10/13 09:34:12;;;;;;;13.48;9.45;;;15.60;79.50;;;;;;5011834;28;20053;-70
2022/10/13 09:36:37;;;;;;;13.95;9.60;;;15.70;79.10;;;;;;5009515;28;20053;-67
2022/10/13 09:39:05;;;;;;;14.43;10.02;;;15.80;78.80;;;;;;5008571;28;20053;-69
2022/10/13 09:41:31;;;;;;;11.15;8.02;;;15.90;78.60;;;;;;5012093;28;20022;-68
2022/10/13 09:44:02;;;;;;;14.48;9.85;;;15.90;78.40;;;;;;5009254;28;20026;-69
2022/10/13 09:46:34;;;;;;;16.00;9.55;;;16.00;78.10;;;;;;5011667;28;20021;-69
2022/10/13 09:49:37;;;;;;;17.08;12.13;;;16.10;77.90;;;;;;5011939;28;20045;-68
2022/10/13 09:52:24;;;;;;;11.02;7.95;;;16.10;77.50;;;;;;5011533;28;20018;-68
2022/10/13 09:54:52;;;;;;;13.00;8.55;;;16.10;77.50;;;;;;5010925;28;20021;-69
2022/10/13 09:57:45;;;;;;;11.82;7.40;;;16.20;77.40;;;;;;5010858;28;20037;-69
2022/10/13 10:00:25;;;;;;;12.13;8.90;;;16.30;77.30;;;;;;5008932;28;20113;-69
2022/10/13 10:02:56;;;;;;;15.43;9.60;;;16.30;77.00;;;;;;5011103;28;20026;-69
2022/10/13 10:05:25;;;;;;;16.55;10.52;;;16.30;76.90;;;;;;5010692;28;20068;-70
2022/10/13 10:07:51;;;;;;;15.85;8.50;;;16.30;76.70;;;;;;5011309;28;20034;-69
2022/10/13 10:10:39;;;;;;;16.95;10.38;;;16.40;76.80;;;;;;5009814;28;20385;-69
2022/10/13 10:13:08;;;;;;;18.95;12.38;;;16.30;77.10;;;;;;5011914;28;20041;-70
2022/10/13 10:15:59;;;;;;;14.23;9.07;;;16.30;76.40;;;;;;5010979;28;20040;-69
2022/10/13 10:18:45;;;;;;;21.50;14.18;;;16.30;76.60;;;;;;5010138;28;20121;-70
2022/10/13 10:21:49;;;;;;;15.50;10.55;;;16.40;76.60;;;;;;5010865;28;20104;-69
2022/10/13 10:24:33;;;;;;;15.68;11.25;;;16.60;76.20;;;;;;4996896;28;20109;-69
2022/10/13 10:27:43;;;;;;;14.00;9.18;;;16.50;76.00;;;;;;5007525;28;20057;-69
2022/10/13 10:30:19;;;;;;;14.10;9.65;;;16.50;76.10;;;;;;5008789;28;20450;-68
2022/10/13 10:33:13;;;;;;;12.20;8.45;;;16.50;75.90;;;;;;5007386;28;20034;-68
2022/10/13 10:35:51;;;;;;;15.18;9.73;;;16.50;76.00;;;;;;5008561;28;20157;-69
2022/10/13 10:38:24;;;;;;;18.52;11.30;;;16.50;75.80;;;;;;5009339;28;20030;-67
2022/10/13 10:41:15;;;;;;;15.65;10.10;;;16.50;76.30;;;;;;5010709;28;20038;-69
2022/10/13 10:43:59;;;;;;;13.63;8.45;;;16.40;75.90;;;;;;5008032;28;20046;-68
2022/10/13 10:46:29;;;;;;;12.35;8.00;;;16.40;76.00;;;;;;5006394;28;20036;-69
2022/10/13 10:48:59;;;;;;;13.60;9.48;;;16.40;76.10;;;;;;5010962;28;20121;-70
2022/10/13 10:51:34;;;;;;;15.93;9.57;;;16.40;76.20;;;;;;5009180;28;20115;-70
2022/10/13 10:54:09;;;;;;;12.55;8.90;;;16.40;76.20;;;;;;5008780;28;20018;-70
2022/10/13 10:56:39;;;;;;;11.20;7.68;;;16.40;76.20;;;;;;5010160;28;20033;-70
2022/10/13 10:59:28;;;;;;;17.40;10.20;;;16.40;76.90;;;;;;5009228;28;20032;-69
2022/10/13 11:02:04;;;;;;;17.50;10.57;;;16.50;76.20;;;;;;5008718;28;20025;-69
2022/10/13 11:04:44;;;;;;;11.40;7.93;;;16.50;76.20;;;;;;5008499;28;20546;-69
2022/10/13 11:07:30;;;;;;;15.93;10.77;;;16.40;76.30;;;;;;5008682;28;20029;-67
2022/10/13 11:09:56;;;;;;;13.35;9.45;;;16.40;76.40;;;;;;5005375;28;20681;-68
2022/10/13 11:12:22;;;;;;;20.40;9.77;;;16.30;76.50;;;;;;5010280;28;20115;-67
2022/10/13 11:14:53;;;;;;;14.73;9.68;;;16.30;76.80;;;;;;5009517;28;20025;-68
2022/10/13 11:17:32;;;;;;;18.08;12.98;;;16.30;76.90;;;;;;5010756;28;20038;-69
2022/10/13 11:19:59;;;;;;;14.50;10.57;;;16.20;77.10;;;;;;5019477;28;20022;-70
2022/10/13 11:22:29;;;;;;;18.23;12.25;;;16.10;77.40;;;;;;5011084;28;20030;-68
2022/10/13 11:24:57;;;;;;;15.73;10.48;;;16.00;78.00;;;;;;5011553;28;20026;-68
2022/10/13 11:27:26;;;;;;;16.77;11.60;;;15.90;78.50;;;;;;5010822;28;20432;-69
2022/10/13 11:29:55;;;;;;;20.50;14.63;;;15.70;79.00;;;;;;5004880;28;20085;-71
2022/10/13 11:32:26;;;;;;;24.50;16.67;;;15.70;79.40;;;;;;5013137;28;20427;-68
2022/10/13 11:35:04;;;;;;;19.77;13.50;;;15.60;79.70;;;;;;5011450;28;20029;-69
2022/10/13 11:37:51;;;;;;;24.00;15.80;;;15.50;80.10;;;;;;5010194;28;20076;-70
2022/10/13 11:40:33;;;;;;;17.95;12.57;;;15.40;80.80;;;;;;5011045;28;20048;-69
2022/10/13 11:43:09;;;;;;;15.45;10.68;;;15.30;81.20;;;;;;4992797;28;20031;-70
2022/10/13 11:45:46;;;;;;;27.63;18.08;;;15.30;81.30;;;;;;5000174;28;20018;-70
2022/10/13 11:48:48;;;;;;;26.17;17.25;;;15.30;81.70;;;;;;5011466;28;20037;-70
2022/10/13 11:51:27;;;;;;;;;;;15.30;82.10;;;;;;5007571;28;20046;-70
2022/10/13 11:54:22;;;;;;;19.70;12.20;;;15.30;81.70;;;;;;5010932;28;19920;-70
2022/10/13 11:56:48;;;;;;;14.70;9.10;;;15.30;82.00;;;;;;5005961;28;20613;-69
2022/10/13 11:59:22;;;;;;;16.52;9.95;;;15.30;82.10;;;;;;5011758;28;20029;-70
2022/10/13 12:01:57;;;;;;;13.63;9.80;;;15.30;82.50;;;;;;5006288;28;20086;-73
2022/10/13 12:04:26;;;;;;;14.80;9.23;;;15.30;82.40;;;;;;5009622;28;20026;-70
2022/10/13 12:07:01;;;;;;;13.23;9.43;;;15.30;82.50;;;;;;5006316;28;20036;-70
2022/10/13 12:09:30;;;;;;;16.15;10.70;;;15.30;82.60;;;;;;5009367;28;20057;-70
2022/10/13 12:12:16;;;;;;;12.63;9.00;;;15.20;82.60;;;;;;5011236;28;20022;-70
2022/10/13 12:14:46;;;;;;;12.00;9.02;;;15.20;82.70;;;;;;5005619;28;20369;-70
2022/10/13 12:17:18;;;;;;;15.18;9.75;;;15.20;82.80;;;;;;5010241;28;20771;-70
2022/10/13 12:19:43;;;;;;;12.70;8.80;;;15.10;82.90;;;;;;5009511;28;20033;-69
2022/10/13 12:22:13;;;;;;;11.80;8.30;;;15.10;83.20;;;;;;5005508;28;20079;-71
2022/10/13 12:24:39;;;;;;;12.57;7.60;;;15.10;83.20;;;;;;5012935;28;20073;-70
2022/10/13 12:27:21;;;;;;;12.23;8.32;;;15.10;83.20;;;;;;5007758;28;20021;-70
2022/10/13 12:29:46;;;;;;;13.60;7.70;;;15.00;83.20;;;;;;5007170;28;20032;-70
2022/10/13 12:32:26;;;;;;;10.95;8.15;;;15.10;83.30;;;;;;5009159;28;20281;-69
2022/10/13 12:34:52;;;;;;;16.33;11.68;;;15.00;83.20;;;;;;5007892;28;20064;-70
2022/10/13 12:37:27;;;;;;;25.00;16.55;;;15.00;83.30;;;;;;5010654;28;20054;-70
2022/10/13 12:39:55;;;;;;;19.27;12.48;;;15.00;83.40;;;;;;5007863;28;20026;-70
2022/10/13 12:42:26;;;;;;;16.17;10.75;;;15.10;83.40;;;;;;5010677;28;20030;-70
2022/10/13 12:44:51;;;;;;;10.55;7.53;;;15.10;83.40;;;;;;5011780;28;20424;-70
2022/10/13 12:47:42;;;;;;;16.13;11.65;;;15.10;83.30;;;;;;5010288;28;20072;-70
2022/10/13 12:50:26;;;;;;;12.27;9.70;;;15.10;83.30;;;;;;5011559;28;20499;-69
2022/10/13 12:53:15;;;;;;;12.23;8.43;;;15.20;83.20;;;;;;5006377;28;20507;-71